Friday, October 31, 2014
07:48 UTC
  |  Log In   |  Register Free
Airport Search:

Pocono Mountains Municipal Airport
(KMPO)

Pocono Mountains Municipal Airport Diagram
No Airport Diagram Available

FAA data valid effective September 18, 2014 - November 13, 2014 (unless otherwise noted).

 
 
 
 
 
 
 
 
 
 
 
 
 
 

Current Aviation Weather for Pocono Mountains Municipal Airport (KMPO)

The most recent METAR observation for KMPO was updated at: 0712
METAR Summary (Translated METAR)
KMPO
310653Z AUTO 00000KT 10SM CLR M02/M03 A2999 RMK AO2 SLP171 I1000 T10221033
KAVP
310654Z AUTO 10006KT 10SM CLR 02/M02 A3002 RMK AO2 SLP168 T00171017
(19.6 nm NW from KMPO)
KABE
310651Z 32003KT 10SM CLR 00/M02 A3003 RMK AO2 SLP170 T00001017
(29.3 nm SW from KMPO)
TAF Summary (Translated TAF)
KAVP
(19.6 nm NW from KMPO)
310533Z 3106/0106 11004KT P6SM SCT040 FM311200 VRB03KT P6SM SCT040 BKN250 FM311900 VRB03KT P6SM OVC100 FM010000 05003KT P6SM OVC045
KABE
(29.3 nm SW from KMPO)
310530Z 3106/0106 VRB03KT P6SM SCT050 FM311700 08004KT P6SM BKN040 FM010500 04003KT P6SM OVC025
  Airport Weather Conditions for KMPO

 Current Weather at MPO
28° F
Fair
North winds at 0.0 mph
MPO NOAA Radar

Pressure: 29.99 in
Humidity: 92%
Wind: Calm
Dew Point: 26.1°F
Visibility: 10.00 mi


Airport Weather Forecast for KMPO

Translated METAR and TAF for KMPO
Translated METAR for KMPO (0743 UTC 31 October 2014)
found at http://aviationweather.gov/adds/metars/
 
METAR text: KMPO 310653Z AUTO 00000KT 10SM CLR M02/M03 A2999 RMK AO2 SLP171 I1000 T10221033
Conditions at: KMPO (MT. POCONO , PA, US) observed 0653 UTC 31 October 2014
Temperature: -2.2°C (28°F)
Dewpoint: -3.3°C (26°F) [RH = 92%]
Pressure (altimeter): 29.99 inches Hg (1015.7 mb)
[Sea-level pressure: 1017.1 mb]
Winds: calm
Visibility: 10 or more miles (16+ km)
Ceiling: at least 12,000 feet AGL
Clouds: sky clear below 12,000 feet AGL
Weather: automated observation with no human augmentation;
there may or may not be significant weather present at this time
Translated TAF for KMPO

There is no translated TAF available for this airport

Find All Airport Services Find A Hotel Find A Rental Car Find A Golf Course Find A Restaurant $100 Hamburger



FBO's on the Field
FBO Company Facility Photos Services Transportation Aviation Fuel Prices: Prices include tax
Catering Weather Repair Courtesy Rental Type 100LL JetA JetA+ MOGAS 8087
 
Pocono Mountains Municipal Airport Authority

This FBO has not yet been rated
FS:Phillips 66
Last Updated: Oct-13
Login to update fuel prices
SS:
Contact Pocono Mountains Municipal Airport AuthorityMore FBO Information
 
Add another FBO Facility Photos Catering Weather Repair Courtesy Rental Type 100LL JetA JetA+ MOGAS 8087
Services Transportation Aviation Fuel Prices: Prices include tax


model-print
model-print
model-print
model-print